Nearby METAR Reports

 

KBFI - Seattle/Boeing, Washington, USA
Distance from station: S 4mi, 7km
Updated: 2019-02-21 19:53
Clear
Clear
 Wind from calm
Wind: Calm
Temperature: 39°F , 4°C
Dew Point: 27°F , -3°C
Humidity: 61%
Barometer: 30.13 inHg , 1020.3 hPa
Clouds: Clear
Visibility: 10 miles , 16 km
2019/02/22 03:53 KBFI 220353Z 00000KT 10SM CLR 04/M03 A3013 RMK AO2 SLP202 T00391028
KRNT - Renton, Washington, USA
Distance from station: SSE 9mi, 14km
Updated: 2019-02-21 19:53
Clear
Clear
 Wind from calm
Wind: Calm
Temperature: 37°F , 3°C
Dew Point: 28°F , -2°C
Humidity: 70%
Barometer: 30.13 inHg , 1020.3 hPa
Clouds: Clear
Visibility: 10 miles , 16 km
2019/02/22 03:53 KRNT 220353Z 00000KT 10SM CLR 03/M02 A3013 RMK AO2 SLP208 T00281022
 
KSEA - Seattle/Metro, Washington, USA
Distance from station: S 11mi, 18km
Updated: 2019-02-21 19:53
Partly cloudy
Partly cloudy
 Wind from calm
Wind: Calm
Temperature: 39°F , 4°C
Dew Point: 25°F , -4°C
Humidity: 56%
Barometer: 30.11 inHg , 1019.6 hPa
Clouds: Partly cloudy
Visibility: 10 miles , 16 km
Cloud details: Partly cloudy 25000 ft
2019/02/22 03:53 KSEA 220353Z 00000KT 10SM SCT250 04/M04 A3011 RMK AO2 SLP207 T00441039
KPAE - Everett, Washington, USA
Distance from station: N 21mi, 34km
Updated: 2019-02-21 19:53
Clear
Clear
 Wind from calm
Wind: Calm
Temperature: 36°F , 2°C
Dew Point: 25°F , -4°C
Humidity: 65%
Barometer: 30.12 inHg , 1020 hPa
Clouds: Clear
Visibility: 10 miles , 16 km
2019/02/22 03:53 KPAE 220353Z AUTO 00000KT 10SM CLR 02/M04 A3012 RMK AO2 SLP205 T00221039
 
KPWT - Bremerton Ntnl, Washington, USA
Distance from station: WSW 22mi, 35km
Updated: 2019-02-21 19:56
Clear
Clear
 Wind from calm
Wind: Calm
Temperature: 30°F , -1°C
Dew Point: 27°F , -3°C
Humidity: 86%
Barometer: 30.12 inHg , 1020 hPa
Clouds: Clear
Visibility: 10 miles , 16 km
2019/02/22 03:56 KPWT 220356Z AUTO 00000KT 10SM CLR M01/M03 A3012 RMK AO2 SLP217 T10111028 FZRANO
KTIW - Tacoma, Washington, USA
Distance from station: SSW 27mi, 43km
Updated: 2019-02-21 19:53
Clear
Clear
 Wind from calm
Wind: Calm
Temperature: 37°F , 3°C
Dew Point: 25°F , -4°C
Humidity: 60%
Barometer: 30.12 inHg , 1020 hPa
Clouds: Clear
Visibility: 10 miles , 16 km
2019/02/22 03:53 KTIW 220353Z 00000KT 10SM CLR 03/M04 A3012 RMK AO2 SLP204 T00281039
 
KTCM - Tacoma/Mc Chord, Washington, USA
Distance from station: S 35mi, 56km
Updated: 2019-02-21 19:58
Clear
Clear
 Wind from S
Wind: S 5 mph , 7 km/h
Temperature: 30°F , -1°C
Wind Chill: 25°F , -4°C
Dew Point: 30°F , -1°C
Humidity: 100%
Barometer: 30.13 inHg , 1020.3 hPa
Clouds: Clear
Visibility: 10 miles , 16 km
2019/02/22 03:58 KTCM 220358Z AUTO 19004KT 10SM CLR M01/M01 A3013 RMK AO2 SLP211 T10071008 $
KPLU - Puyallup/Thun, Washington, USA
Distance from station: S 35mi, 57km
Updated: 2019-02-21 20:15
Clear
Clear
 Wind from calm
Wind: Calm
Temperature: 32°F , 0°C
Dew Point: 30°F , -1°C
Humidity: 93%
Barometer: 30.12 inHg , 1020 hPa
Clouds: Clear
Visibility: 10 miles , 16 km
2019/02/22 04:15 KPLU 220415Z AUTO 00000KT 10SM CLR 00/M01 A3012 RMK AO2
 
K0S9 - Port Townsend, Washington, USA
Distance from station: NW 38mi, 62km
Updated: 2019-02-21 20:35
Few Clouds
Few Clouds
 Wind from calm
Wind: Calm
Temperature: 28°F , -2°C
Dew Point: 27°F , -3°C
Humidity: 93%
Barometer: 30.12 inHg , 1020 hPa
Clouds: Few Clouds
Visibility: 10 miles , 16 km
Cloud details: Few Clouds 12000 ft
2019/02/22 04:35 K0S9 220435Z AUTO 00000KT 10SM FEW120 M02/M03 A3012 RMK AO2
KAWO - Arlington Muni, Washington, USA
Distance from station: N 39mi, 63km
Updated: 2019-02-21 19:56
Clear
Clear
 Wind from NNE
Wind: NNE 3 mph , 6 km/h
Temperature: 30°F , -1°C
Dew Point: 27°F , -3°C
Humidity: 86%
Barometer: 30.13 inHg , 1020.3 hPa
Clouds: Clear
Visibility: 10 miles , 16 km
2019/02/22 03:56 KAWO 220356Z AUTO 03003KT 10SM CLR M01/M03 A3013 RMK AO2 SLP209 T10111028 FZRANO
 
KGRF - Fort Lewis/Gray, Washington, USA
Distance from station: SSW 39mi, 64km
Updated: 2019-02-21 19:58
Clear
Clear
 Wind from ESE
Wind: ESE 3 mph , 6 km/h
Temperature: 34°F , 1°C
Dew Point: 34°F , 1°C
Humidity: 100%
Barometer: 30.12 inHg , 1020 hPa
Clouds: Clear
Visibility: 10 miles , 16 km
2019/02/22 03:58 KGRF 220358Z AUTO 12003KT 10SM CLR 01/01 A3012 RMK AO2 SLP207 T00110005 $
KSHN - Shelton, Washington, USA
Distance from station: SW 46mi, 75km
Updated: 2019-02-21 19:53
Clear
Clear
 Wind from calm
Wind: Calm
Temperature: 30°F , -1°C
Dew Point: 27°F , -3°C
Humidity: 86%
Barometer: 30.10 inHg , 1019.3 hPa
Clouds: Clear
Visibility: 10 miles , 16 km
2019/02/22 03:53 KSHN 220353Z AUTO 00000KT 10SM CLR M01/M03 A3010 RMK AO2 SLP201 T10111033